Liberty — WDF9328 — position and weather

sailwx.info

Track history (hours):
 
Tides and Currents Weather Stations Pressure Air Temp Water Temp Dewpoint Dewpoint Depression Visibility Wind Speed Wind Dir Waves Ship Positions

Liberty

Owner: Den Besten, Ronald W, Bonita Springs, FL. More information available from US FCC via Universal Licensing System and Coast Guard Vessel Documentation Center.

Last reported at 2018-Jun-17 18:13 UTC. Time now 2018-Jun-21 02:54 UTC.
Position N 42°15' W 070°56'.

Length 14 m.

Type: Pleasure craft. MMSI: 369288000.

Date/timePositionNaut miles runAvg speedWind from/ knotsBaromVisibWave heightAir tempDewpointWater temp
2018-Jun-17 18:13N 42°15' W 070°56'1 2.8
2018-Jun-17 17:59N 42°16' W 070°56'816.5
2018-Jun-17 17:29N 42°23' W 070°51'714.8
2018-Jun-17 17:00N 42°30' W 070°50'1 0.0
2018-Jun-15 21:22N 42°30' W 070°51'1 1.7
2018-Jun-15 20:58N 42°30' W 070°50'1116.6
2018-Jun-15 20:19N 42°20' W 070°52'514.6
2018-Jun-15 20:00N 42°16' W 070°56'  
2018-Jun-10 20:27N 42°15' W 070°55'4 9.3
2018-Jun-10 20:00N 42°18' W 070°52'917.7
2018-Jun-10 19:30N 42°13' W 070°43'9 0.3
2018-Jun-09 16:34N 42°19' W 070°52'118.2
2018-Jun-09 16:30N 42°19' W 070°54'  
Track history (hours):
 
Tides and Currents Weather Stations Pressure Air Temp Water Temp Dewpoint Dewpoint Depression Visibility Wind Speed Wind Dir Waves Ship Positions

Liberty

Owner: Den Besten, Ronald W, Bonita Springs, FL. More information available from US FCC via Universal Licensing System and Coast Guard Vessel Documentation Center.

Last reported at 2018-Jun-17 18:13 UTC. Time now 2018-Jun-21 02:54 UTC.
Position N 42°15' W 070°56'.

Length 14 m.

Type: Pleasure craft. MMSI: 369288000.

Date/timePositionNaut miles runAvg speedWind from/ knotsBaromVisibWave heightAir tempDewpointWater temp
2018-Jun-17 18:13N 42°15' W 070°56'1 2.8
2018-Jun-17 17:59N 42°16' W 070°56'816.5
2018-Jun-17 17:29N 42°23' W 070°51'714.8
2018-Jun-17 17:00N 42°30' W 070°50'1 0.0
2018-Jun-15 21:22N 42°30' W 070°51'1 1.7
2018-Jun-15 20:58N 42°30' W 070°50'1116.6
2018-Jun-15 20:19N 42°20' W 070°52'514.6
2018-Jun-15 20:00N 42°16' W 070°56'  
2018-Jun-10 20:27N 42°15' W 070°55'4 9.3
2018-Jun-10 20:00N 42°18' W 070°52'917.7
2018-Jun-10 19:30N 42°13' W 070°43'9 0.3
2018-Jun-09 16:34N 42°19' W 070°52'118.2
2018-Jun-09 16:30N 42°19' W 070°54'  

Dump ship's entire track history